createdAt,value
2018-12-08T00:01:28.534Z,98774.57
2018-12-08T00:06:31.011Z,98775.54
2018-12-08T00:11:33.529Z,98792.58
2018-12-08T00:16:36.026Z,98811.98
2018-12-08T00:21:38.498Z,98825.23
2018-12-08T00:26:40.984Z,98833.98
2018-12-08T00:31:44.721Z,98831.83
2018-12-08T00:36:47.405Z,98833.66
2018-12-08T00:41:49.934Z,98828.89
2018-12-08T00:46:52.426Z,98832.28
2018-12-08T00:51:55.522Z,98854.00
2018-12-08T00:56:58.065Z,98862.76
2018-12-08T01:02:00.558Z,98879.86
2018-12-08T01:07:03.038Z,98895.11
2018-12-08T01:12:05.563Z,98898.48
2018-12-08T01:17:08.077Z,98910.79
2018-12-08T01:22:10.597Z,98914.95
2018-12-08T01:27:13.090Z,98930.62
2018-12-08T01:32:16.417Z,98933.41
2018-12-08T01:37:18.917Z,98940.33
2018-12-08T01:42:21.385Z,98940.94
2018-12-08T01:47:23.852Z,98950.03
2018-12-08T01:52:26.374Z,98945.27
2018-12-08T01:57:28.895Z,98932.80
2018-12-08T02:02:31.362Z,98945.09
2018-12-08T02:07:33.881Z,98923.68
2018-12-08T02:12:36.377Z,98920.91
2018-12-08T02:17:38.873Z,98928.30
2018-12-08T02:22:41.353Z,98930.91
2018-12-08T02:27:43.827Z,98942.16
2018-12-08T02:32:46.290Z,98958.31
2018-12-08T02:37:48.759Z,98974.94
2018-12-08T02:42:52.046Z,98980.02
2018-12-08T02:47:54.530Z,98986.80
2018-12-08T02:52:57.470Z,98978.48
2018-12-08T02:57:59.968Z,98957.84
2018-12-08T03:03:02.474Z,98958.15
2018-12-08T03:08:05.073Z,98966.91
2018-12-08T03:13:07.549Z,98979.09
2018-12-08T03:18:10.122Z,98986.03
2018-12-08T03:23:12.686Z,98997.38
2018-12-08T03:28:15.157Z,99000.32
2018-12-08T03:33:17.622Z,99006.64
2018-12-08T03:38:20.270Z,99007.25
2018-12-08T03:43:22.921Z,99017.55
2018-12-08T03:48:25.418Z,99035.13
2018-12-08T03:53:28.648Z,99043.70
2018-12-08T03:58:31.171Z,99061.38
2018-12-08T04:03:33.645Z,99072.97
2018-12-08T04:08:36.163Z,99075.58
2018-12-08T04:13:38.639Z,99085.11
2018-12-08T04:18:41.141Z,99086.66
2018-12-08T04:23:43.630Z,99111.09
2018-12-08T04:28:46.133Z,99113.59
2018-12-08T04:33:49.395Z,99111.73
2018-12-08T04:38:51.868Z,99120.34
2018-12-08T04:43:54.434Z,99123.08
2018-12-08T04:48:56.910Z,99134.03
2018-12-08T04:53:59.389Z,99137.58
2018-12-08T04:59:01.886Z,99140.19
2018-12-08T05:04:04.415Z,99151.91
2018-12-08T05:09:07.122Z,99148.02
2018-12-08T05:14:09.613Z,99152.34
2018-12-08T05:19:12.081Z,99166.97
2018-12-08T05:24:15.121Z,99160.48
2018-12-08T05:29:17.617Z,99175.28
2018-12-08T05:34:20.087Z,99173.90
2018-12-08T05:39:22.613Z,99173.90
2018-12-08T05:44:25.079Z,99167.58
2018-12-08T05:49:27.922Z,99172.52
2018-12-08T05:54:30.614Z,99175.72
2018-12-08T05:59:33.637Z,99180.83
2018-12-08T06:04:36.585Z,99178.66
2018-12-08T06:09:39.090Z,99163.42
2018-12-08T06:14:41.588Z,99152.95
2018-12-08T06:19:44.094Z,99161.87
2018-12-08T06:24:46.591Z,99166.63
2018-12-08T06:29:49.347Z,99172.00
2018-12-08T06:34:51.985Z,99167.84
2018-12-08T06:39:54.498Z,99154.77
2018-12-08T06:44:57.129Z,99149.06
2018-12-08T06:49:59.701Z,99152.00
2018-12-08T06:55:02.322Z,99151.66
2018-12-08T07:00:06.089Z,99160.88
2018-12-08T07:05:08.613Z,99161.75
2018-12-08T07:10:11.082Z,99160.63
2018-12-08T07:15:13.574Z,99171.27
2018-12-08T07:20:16.069Z,99161.75
2018-12-08T07:25:18.609Z,99173.00
2018-12-08T07:30:21.134Z,99173.52
2018-12-08T07:35:24.531Z,99168.11
2018-12-08T07:40:27.050Z,99162.09
2018-12-08T07:45:29.534Z,99169.28
2018-12-08T07:50:32.020Z,99158.98
2018-12-08T07:55:34.514Z,99171.93
2018-12-08T08:00:37.001Z,99163.25
2018-12-08T08:05:39.502Z,99152.22
2018-12-08T08:10:42.000Z,99142.98
2018-12-08T08:15:44.465Z,99131.31
2018-12-08T08:20:46.933Z,99124.84
2018-12-08T08:25:49.521Z,99113.20
2018-12-08T08:30:52.017Z,99121.47
2018-12-08T08:35:54.481Z,99115.59
2018-12-08T08:40:57.190Z,99117.44
2018-12-08T08:45:59.902Z,99115.78
2018-12-08T08:51:02.437Z,99118.59
2018-12-08T08:56:04.990Z,99123.95
2018-12-08T09:01:07.454Z,99120.95
2018-12-08T09:06:09.955Z,99113.62
2018-12-08T09:11:12.461Z,99110.76
2018-12-08T09:16:14.953Z,99104.16
2018-12-08T09:21:17.422Z,99098.22
2018-12-08T09:26:20.602Z,99095.20
2018-12-08T09:31:23.099Z,99082.09
2018-12-08T09:36:25.674Z,99083.58
2018-12-08T09:41:28.280Z,99071.55
2018-12-08T09:46:30.754Z,99061.53
2018-12-08T09:51:34.062Z,99057.98
2018-12-08T09:56:37.014Z,99046.40
2018-12-08T10:01:39.541Z,99039.83
2018-12-08T10:06:42.173Z,99026.58
2018-12-08T10:11:44.704Z,99022.26
2018-12-08T10:16:47.545Z,99016.27
2018-12-08T10:21:50.157Z,99026.30
2018-12-08T10:26:52.809Z,99007.09
2018-12-08T10:31:55.297Z,99004.52
2018-12-08T10:36:57.962Z,99000.05
2018-12-08T10:42:00.557Z,98994.36
2018-12-08T10:47:03.130Z,98993.89
2018-12-08T10:52:05.783Z,98977.70
2018-12-08T10:57:08.286Z,98988.02
2018-12-08T11:02:16.409Z,98977.20
2018-12-08T11:07:18.901Z,98982.47
2018-12-08T11:12:21.674Z,98971.87
2018-12-08T11:17:24.281Z,98972.48
2018-12-08T11:22:28.482Z,98971.23
2018-12-08T11:27:30.980Z,98954.61
2018-12-08T11:32:33.473Z,98946.45
2018-12-08T11:37:36.298Z,98919.99
2018-12-08T11:42:39.245Z,98925.88
2018-12-08T11:47:41.966Z,98922.05
2018-12-08T11:52:44.681Z,98917.89
2018-12-08T11:57:47.238Z,98905.58
2018-12-08T12:02:49.734Z,98892.61
2018-12-08T12:07:52.206Z,98887.67
2018-12-08T12:12:54.702Z,98881.23
2018-12-08T12:17:57.468Z,98881.35
2018-12-08T12:23:00.078Z,98886.27
2018-12-08T12:28:02.793Z,98874.84
2018-12-08T12:33:05.376Z,98870.04
2018-12-08T12:38:08.002Z,98860.81
2018-12-08T12:43:10.633Z,98866.97
2018-12-08T12:48:13.129Z,98878.51
2018-12-08T12:53:15.801Z,98878.63
2018-12-08T12:58:18.321Z,98873.08
2018-12-08T13:03:20.793Z,98870.02
2018-12-08T13:08:23.269Z,98845.06
2018-12-08T13:13:25.765Z,98848.61
2018-12-08T13:18:28.387Z,98848.89
2018-12-08T13:23:30.986Z,98848.12
2018-12-08T13:28:34.294Z,98844.24
2018-12-08T13:33:36.886Z,98847.63
2018-12-08T13:38:39.462Z,98851.34
2018-12-08T13:43:45.785Z,98838.86
2018-12-08T13:48:48.330Z,98838.70
2018-12-08T13:53:50.846Z,98829.16
2018-12-08T13:58:54.875Z,98832.88
2018-12-08T14:03:57.573Z,98841.02
2018-12-08T14:09:00.181Z,98831.16
2018-12-08T14:14:02.785Z,98834.09
2018-12-08T14:19:05.353Z,98829.94
2018-12-08T14:24:07.864Z,98822.23
2018-12-08T14:29:10.355Z,98823.01
2018-12-08T14:34:13.830Z,98831.16
2018-12-08T14:39:16.345Z,98844.11
2018-12-08T14:44:18.859Z,98837.31
2018-12-08T14:49:21.429Z,98835.93
2018-12-08T14:54:23.926Z,98836.41
2018-12-08T14:59:27.174Z,98835.80
2018-12-08T15:04:29.649Z,98840.09
2018-12-08T15:09:32.133Z,98839.97
2018-12-08T15:14:34.837Z,98847.84
2018-12-08T15:19:37.360Z,98833.65
2018-12-08T15:24:39.977Z,98836.09
2018-12-08T15:29:42.877Z,98835.31
2018-12-08T15:34:45.349Z,98843.63
2018-12-08T15:39:48.641Z,98841.78
2018-12-08T15:44:51.195Z,98840.86
2018-12-08T15:49:53.686Z,98841.63
2018-12-08T15:54:56.256Z,98847.02
2018-12-08T15:59:58.917Z,98846.24
2018-12-08T16:05:01.441Z,98842.39
2018-12-08T16:10:08.466Z,98847.34
2018-12-08T16:15:11.005Z,98853.06
2018-12-08T16:20:13.757Z,98849.84
2018-12-08T16:25:16.354Z,98850.17
2018-12-08T16:30:18.950Z,98853.55
2018-12-08T16:35:21.438Z,98847.73
2018-12-08T16:40:24.034Z,98853.88
2018-12-08T16:45:27.189Z,98847.15
2018-12-08T16:50:29.837Z,98843.61
2018-12-08T16:55:32.345Z,98826.64
2018-12-08T17:00:34.921Z,98835.72
2018-12-08T17:05:37.449Z,98833.78
2018-12-08T17:10:40.007Z,98835.30
2018-12-08T17:15:42.486Z,98828.63
2018-12-08T17:20:45.004Z,98823.44
2018-12-08T17:25:47.686Z,98823.19
2018-12-08T17:30:50.281Z,98831.67
2018-12-08T17:35:52.877Z,98824.54
2018-12-08T17:40:55.477Z,98823.50
2018-12-08T17:45:58.013Z,98808.59
2018-12-08T17:51:00.768Z,98802.41
2018-12-08T17:56:03.462Z,98796.25
2018-12-08T18:01:06.022Z,98791.95
2018-12-08T18:06:08.537Z,98787.66
2018-12-08T18:11:11.049Z,98786.63
2018-12-08T18:16:13.577Z,98791.85
2018-12-08T18:21:16.213Z,98796.34
2018-12-08T18:26:18.920Z,98792.79
2018-12-08T18:31:21.405Z,98793.73
2018-12-08T18:36:24.014Z,98792.51
2018-12-08T18:41:26.590Z,98780.03
2018-12-08T18:46:29.089Z,98778.48
2018-12-08T18:51:31.687Z,98769.56
2018-12-08T18:56:34.177Z,98764.95
2018-12-08T19:01:36.670Z,98758.47
2018-12-08T19:06:39.228Z,98743.39
2018-12-08T19:11:41.753Z,98741.55
2018-12-08T19:16:44.349Z,98727.53
2018-12-08T19:21:46.874Z,98730.59
2018-12-08T19:26:49.438Z,98712.58
2018-12-08T19:31:52.141Z,98705.41
2018-12-08T19:36:55.779Z,98697.73
2018-12-08T19:41:59.108Z,98699.41
2018-12-08T19:47:01.618Z,98693.73
2018-12-08T19:52:04.253Z,98672.64
2018-12-08T19:57:06.748Z,98668.77
2018-12-08T20:02:09.255Z,98659.55
2018-12-08T20:07:11.826Z,98651.39
2018-12-08T20:12:14.317Z,98626.10
2018-12-08T20:17:16.808Z,98612.25
2018-12-08T20:22:19.370Z,98609.32
2018-12-08T20:27:21.858Z,98609.16
2018-12-08T20:32:24.392Z,98587.60
2018-12-08T20:37:26.877Z,98592.38
2018-12-08T20:42:29.473Z,98600.21
2018-12-08T20:47:32.095Z,98594.51
2018-12-08T20:52:34.765Z,98588.64
2018-12-08T20:57:37.257Z,98574.66
2018-12-08T21:02:39.738Z,98564.63
2018-12-08T21:07:42.341Z,98544.30
2018-12-08T21:12:44.833Z,98526.45
2018-12-08T21:17:47.341Z,98520.29
2018-12-08T21:22:49.861Z,98505.17
2018-12-08T21:27:52.413Z,98507.17
2018-12-08T21:32:54.902Z,98495.64
2018-12-08T21:37:57.410Z,98484.08
2018-12-08T21:42:59.993Z,98464.68
2018-12-08T21:48:02.482Z,98433.58
2018-12-08T21:53:05.077Z,98417.28
2018-12-08T21:58:07.546Z,98404.66
2018-12-08T22:03:10.167Z,98392.34
2018-12-08T22:08:12.655Z,98370.63
2018-12-08T22:13:15.137Z,98342.75
2018-12-08T22:18:17.638Z,98330.13
2018-12-08T22:23:20.127Z,98316.42
2018-12-08T22:28:22.623Z,98295.80
2018-12-08T22:33:25.212Z,98286.41
2018-12-08T22:38:28.673Z,98273.63
2018-12-08T22:43:31.529Z,98269.00
2018-12-08T22:48:35.044Z,98254.84
2018-12-08T22:53:37.529Z,98256.66
2018-12-08T22:58:40.129Z,98250.50
2018-12-08T23:03:42.638Z,98213.39
2018-12-08T23:08:45.223Z,98200.16
2018-12-08T23:13:47.705Z,98190.45
2018-12-08T23:18:50.405Z,98171.06
2018-12-08T23:23:52.922Z,98165.67
2018-12-08T23:28:55.401Z,98155.97
2018-12-08T23:33:57.981Z,98142.88
2018-12-08T23:39:00.530Z,98112.39
2018-12-08T23:44:03.128Z,98085.45
2018-12-08T23:49:11.198Z,98069.28
2018-12-08T23:54:10.305Z,98054.52
2018-12-08T23:59:12.797Z,98051.27
